createdAt,value
2022-10-30T00:02:14.001Z,97389.13
2022-10-30T00:04:40.606Z,97383.25
2022-10-30T00:07:07.123Z,97380.47
2022-10-30T00:09:33.797Z,97382.22
2022-10-30T00:12:00.688Z,97383.13
2022-10-30T00:14:27.249Z,97383.44
2022-10-30T00:16:53.894Z,97379.59
2022-10-30T00:19:20.463Z,97384.09
2022-10-30T00:21:47.148Z,97381.81
2022-10-30T00:24:13.674Z,97385.66
2022-10-30T00:26:40.215Z,97385.75
2022-10-30T00:29:06.865Z,97387.81
2022-10-30T00:31:33.447Z,97380.50
2022-10-30T00:34:00.074Z,97366.59
2022-10-30T00:36:26.799Z,97369.06
2022-10-30T00:38:53.529Z,97371.31
2022-10-30T00:41:21.628Z,97373.09
2022-10-30T00:43:48.320Z,97377.19
2022-10-30T00:46:19.479Z,97370.00
2022-10-30T00:48:48.968Z,97372.25
2022-10-30T00:51:15.477Z,97354.03
2022-10-30T00:53:42.154Z,97363.00
2022-10-30T00:56:08.739Z,97356.66
2022-10-30T00:58:49.122Z,97366.50
2022-10-30T01:01:19.335Z,97369.84
2022-10-30T01:03:46.116Z,97370.91
2022-10-30T01:06:12.664Z,97371.97
2022-10-30T01:08:39.381Z,97372.63
2022-10-30T01:11:06.137Z,97375.78
2022-10-30T01:13:33.072Z,97369.94
2022-10-30T01:16:22.921Z,97366.53
2022-10-30T01:19:09.733Z,97369.84
2022-10-30T01:21:45.572Z,97372.69
2022-10-30T01:24:19.902Z,97386.00
2022-10-30T01:26:55.752Z,97371.50
2022-10-30T01:29:26.229Z,97356.38
2022-10-30T01:31:59.160Z,97360.44
2022-10-30T01:34:44.530Z,97359.84
2022-10-30T01:37:14.624Z,97367.41
2022-10-30T01:39:41.573Z,97362.28
2022-10-30T01:42:31.168Z,97355.31
2022-10-30T01:44:57.790Z,97351.47
2022-10-30T01:47:46.826Z,97348.00
2022-10-30T01:50:32.193Z,97349.03
2022-10-30T01:53:09.015Z,97348.22
2022-10-30T01:55:43.079Z,97345.75
2022-10-30T01:58:28.906Z,97347.00
2022-10-30T02:00:57.097Z,97355.38
2022-10-30T02:03:23.938Z,97362.53
2022-10-30T02:05:51.227Z,97347.22
2022-10-30T02:08:17.854Z,97354.53
2022-10-30T02:10:45.309Z,97362.47
2022-10-30T02:13:11.880Z,97357.53
2022-10-30T02:15:38.470Z,97363.66
2022-10-30T02:18:05.221Z,97363.59
2022-10-30T02:20:31.792Z,97360.72
2022-10-30T02:22:59.529Z,97353.38
2022-10-30T02:25:26.426Z,97356.91
2022-10-30T02:27:53.044Z,97354.78
2022-10-30T02:30:19.669Z,97359.19
2022-10-30T02:32:46.210Z,97359.34
2022-10-30T02:35:12.720Z,97361.59
2022-10-30T02:37:39.993Z,97369.13
2022-10-30T02:40:08.343Z,97357.09
2022-10-30T02:42:35.272Z,97364.81
2022-10-30T02:45:01.756Z,97355.41
2022-10-30T02:47:31.400Z,97358.69
2022-10-30T02:49:57.890Z,97363.00
2022-10-30T02:52:24.345Z,97375.78
2022-10-30T02:54:50.803Z,97361.50
2022-10-30T02:57:17.373Z,97374.53
2022-10-30T02:59:43.829Z,97362.94
2022-10-30T03:02:10.381Z,97368.00
2022-10-30T03:04:37.350Z,97373.69
2022-10-30T03:07:03.923Z,97376.34
2022-10-30T03:09:30.470Z,97372.03
2022-10-30T03:11:56.973Z,97366.41
2022-10-30T03:14:23.558Z,97361.97
2022-10-30T03:16:52.596Z,97361.59
2022-10-30T03:19:20.358Z,97366.50
2022-10-30T03:21:47.145Z,97357.72
2022-10-30T03:24:13.789Z,97352.22
2022-10-30T03:26:40.340Z,97351.81
2022-10-30T03:29:07.004Z,97350.94
2022-10-30T03:31:33.687Z,97355.41
2022-10-30T03:34:00.226Z,97353.97
2022-10-30T03:36:27.772Z,97360.44
2022-10-30T03:38:54.324Z,97354.25
2022-10-30T03:41:20.858Z,97349.53
2022-10-30T03:43:47.377Z,97365.13
2022-10-30T03:46:13.857Z,97355.31
2022-10-30T03:48:40.444Z,97357.16
2022-10-30T03:51:06.994Z,97356.38
2022-10-30T03:53:33.599Z,97362.13
2022-10-30T03:56:04.604Z,97365.00
2022-10-30T03:58:31.113Z,97369.72
2022-10-30T04:01:01.828Z,97376.38
2022-10-30T04:03:28.371Z,97377.22
2022-10-30T04:05:54.912Z,97375.53
2022-10-30T04:08:21.417Z,97372.44
2022-10-30T04:10:48.052Z,97371.34
2022-10-30T04:13:16.451Z,97378.59
2022-10-30T04:15:43.085Z,97370.28
2022-10-30T04:18:11.174Z,97377.06
2022-10-30T04:20:37.740Z,97368.41
2022-10-30T04:23:05.361Z,97369.41
2022-10-30T04:25:32.129Z,97362.31
2022-10-30T04:27:58.963Z,97358.84
2022-10-30T04:30:27.206Z,97361.41
2022-10-30T04:32:56.746Z,97362.81
2022-10-30T04:35:25.594Z,97367.91
2022-10-30T04:38:01.462Z,97370.97
2022-10-30T04:40:30.930Z,97361.16
2022-10-30T04:42:57.923Z,97363.69
2022-10-30T04:45:24.768Z,97364.44
2022-10-30T04:47:51.338Z,97363.38
2022-10-30T04:50:18.018Z,97359.91
2022-10-30T04:52:44.724Z,97370.28
2022-10-30T04:55:11.440Z,97367.84
2022-10-30T04:57:38.125Z,97359.47
2022-10-30T05:00:05.594Z,97363.94
2022-10-30T05:02:32.246Z,97363.06
2022-10-30T05:04:58.786Z,97362.81
2022-10-30T05:07:25.333Z,97361.53
2022-10-30T05:09:51.794Z,97359.47
2022-10-30T05:12:19.587Z,97351.53
2022-10-30T05:14:46.057Z,97353.72
2022-10-30T05:17:12.604Z,97350.31
2022-10-30T05:19:39.122Z,97354.31
2022-10-30T05:22:05.674Z,97353.38
2022-10-30T05:24:32.216Z,97361.75
2022-10-30T05:26:58.699Z,97350.75
2022-10-30T05:29:25.164Z,97356.19
2022-10-30T05:31:51.678Z,97364.09
2022-10-30T05:34:18.113Z,97359.53
2022-10-30T05:36:44.631Z,97361.06
2022-10-30T05:39:11.111Z,97371.16
2022-10-30T05:41:37.771Z,97367.53
2022-10-30T05:44:04.326Z,97366.88
2022-10-30T05:46:30.805Z,97370.88
2022-10-30T05:48:57.393Z,97367.28
2022-10-30T05:51:23.872Z,97372.28
2022-10-30T05:53:50.377Z,97371.81
2022-10-30T05:56:16.934Z,97372.28
2022-10-30T05:58:43.553Z,97368.94
2022-10-30T06:01:10.034Z,97370.16
2022-10-30T06:03:36.514Z,97372.91
2022-10-30T06:06:03.117Z,97369.16
2022-10-30T06:08:29.641Z,97369.16
2022-10-30T06:10:56.145Z,97369.94
2022-10-30T06:13:22.856Z,97372.69
2022-10-30T06:15:49.326Z,97369.94
2022-10-30T06:18:15.801Z,97369.13
2022-10-30T06:20:42.270Z,97372.22
2022-10-30T06:23:10.418Z,97367.06
2022-10-30T06:25:41.110Z,97366.25
2022-10-30T06:28:08.966Z,97363.78
2022-10-30T06:30:35.467Z,97367.22
2022-10-30T06:33:02.816Z,97370.38
2022-10-30T06:35:29.515Z,97358.31
2022-10-30T06:37:56.508Z,97356.94
2022-10-30T06:40:23.452Z,97350.31
2022-10-30T06:42:51.216Z,97351.59
2022-10-30T06:45:19.278Z,97344.06
2022-10-30T06:47:45.809Z,97344.06
2022-10-30T06:50:13.394Z,97350.38
2022-10-30T06:52:39.900Z,97346.63
2022-10-30T06:55:06.567Z,97345.31
2022-10-30T06:57:33.046Z,97352.06
2022-10-30T06:59:59.477Z,97345.78
2022-10-30T07:02:26.052Z,97343.00
2022-10-30T07:04:52.555Z,97342.34
2022-10-30T07:07:19.082Z,97339.41
2022-10-30T07:09:46.619Z,97343.06
2022-10-30T07:12:13.211Z,97339.06
2022-10-30T07:14:39.720Z,97337.00
2022-10-30T07:17:06.217Z,97339.09
2022-10-30T07:19:32.753Z,97332.78
2022-10-30T07:22:00.607Z,97335.75
2022-10-30T07:24:27.371Z,97342.13
2022-10-30T07:26:54.653Z,97350.78
2022-10-30T07:29:21.157Z,97347.97
2022-10-30T07:32:02.321Z,97350.63
2022-10-30T07:34:29.841Z,97354.81
2022-10-30T07:36:56.330Z,97350.03
2022-10-30T07:39:22.840Z,97348.41
2022-10-30T07:41:50.604Z,97355.81
2022-10-30T07:44:17.353Z,97356.50
2022-10-30T07:46:43.866Z,97353.13
2022-10-30T07:49:10.364Z,97356.22
2022-10-30T07:51:36.850Z,97357.56
2022-10-30T07:54:03.426Z,97362.31
2022-10-30T07:56:29.889Z,97357.13
2022-10-30T07:58:56.441Z,97363.88
2022-10-30T08:01:23.212Z,97359.69
2022-10-30T08:03:49.840Z,97360.53
2022-10-30T08:06:16.817Z,97358.16
2022-10-30T08:08:43.884Z,97359.63
2022-10-30T08:11:10.388Z,97356.16
2022-10-30T08:13:36.918Z,97360.88
2022-10-30T08:16:03.390Z,97359.25
2022-10-30T08:18:29.946Z,97355.56
2022-10-30T08:20:56.488Z,97354.53
2022-10-30T08:23:23.176Z,97354.53
2022-10-30T08:25:49.658Z,97352.66
2022-10-30T08:28:16.210Z,97356.28
2022-10-30T08:30:42.759Z,97365.50
2022-10-30T08:33:15.790Z,97359.47
2022-10-30T08:35:49.082Z,97362.75
2022-10-30T08:38:15.636Z,97364.00
2022-10-30T08:40:42.175Z,97356.16
2022-10-30T08:43:08.873Z,97362.94
2022-10-30T08:45:35.618Z,97369.72
2022-10-30T08:48:03.708Z,97362.03
2022-10-30T08:50:30.929Z,97364.31
2022-10-30T08:53:00.796Z,97359.16
2022-10-30T08:55:27.658Z,97366.22
2022-10-30T08:57:54.297Z,97358.81
2022-10-30T09:00:21.096Z,97362.84
2022-10-30T09:02:47.818Z,97357.81
2022-10-30T09:05:14.682Z,97356.75
2022-10-30T09:07:41.447Z,97360.28
2022-10-30T09:10:08.317Z,97357.03
2022-10-30T09:12:35.019Z,97345.72
2022-10-30T09:15:02.132Z,97357.53
2022-10-30T09:17:28.824Z,97348.00
2022-10-30T09:19:55.639Z,97349.72
2022-10-30T09:22:22.313Z,97340.03
2022-10-30T09:24:49.154Z,97344.75
2022-10-30T09:27:15.869Z,97346.63
2022-10-30T09:29:42.655Z,97345.19
2022-10-30T09:32:10.751Z,97352.03
2022-10-30T09:34:38.541Z,97344.88
2022-10-30T09:37:05.301Z,97346.25
2022-10-30T09:39:31.908Z,97350.53
2022-10-30T09:41:58.515Z,97342.47
2022-10-30T09:44:40.690Z,97346.47
2022-10-30T09:47:08.809Z,97349.81
2022-10-30T09:49:35.545Z,97340.63
2022-10-30T09:52:06.442Z,97340.50
2022-10-30T09:54:40.334Z,97341.00
2022-10-30T09:57:10.955Z,97338.72
2022-10-30T09:59:37.678Z,97340.97
2022-10-30T10:02:34.130Z,97342.75
2022-10-30T10:05:17.880Z,97343.38
2022-10-30T10:07:48.439Z,97335.44
2022-10-30T10:10:20.358Z,97340.44
2022-10-30T10:12:48.251Z,97342.53
2022-10-30T10:15:17.697Z,97330.88
2022-10-30T10:17:45.034Z,97340.03
2022-10-30T10:20:21.187Z,97334.38
2022-10-30T10:22:51.282Z,97332.38
2022-10-30T10:25:19.454Z,97331.81
2022-10-30T10:27:49.916Z,97323.47
2022-10-30T10:30:22.924Z,97321.13
2022-10-30T10:32:50.296Z,97317.34
2022-10-30T10:35:20.002Z,97326.34
2022-10-30T10:37:50.187Z,97320.09
2022-10-30T10:40:23.195Z,97316.19
2022-10-30T10:42:52.953Z,97307.41
2022-10-30T10:45:22.686Z,97311.91
2022-10-30T10:48:04.752Z,97316.06
2022-10-30T10:50:39.673Z,97303.16
2022-10-30T10:53:21.989Z,97294.97
2022-10-30T10:56:18.955Z,97295.63
2022-10-30T10:59:04.188Z,97293.81
2022-10-30T11:01:41.407Z,97293.31
2022-10-30T11:04:25.217Z,97286.84
2022-10-30T11:06:53.489Z,97281.78
2022-10-30T11:09:24.211Z,97288.53
2022-10-30T11:14:22.913Z,97281.88
2022-10-30T11:17:06.146Z,97273.34
2022-10-30T11:19:32.867Z,97269.06
2022-10-30T11:21:59.518Z,97275.91
2022-10-30T11:24:27.393Z,97278.59
2022-10-30T11:26:54.613Z,97277.13
2022-10-30T11:29:25.386Z,97280.50
2022-10-30T11:32:05.330Z,97276.25
2022-10-30T11:34:33.187Z,97274.44
2022-10-30T11:36:59.820Z,97279.53
2022-10-30T11:39:27.682Z,97279.63
2022-10-30T11:41:57.296Z,97269.41
2022-10-30T11:44:28.860Z,97272.41
2022-10-30T11:46:55.557Z,97278.22
2022-10-30T11:49:31.129Z,97274.06
2022-10-30T11:51:57.790Z,97274.31
2022-10-30T11:54:24.435Z,97265.50
2022-10-30T11:56:51.022Z,97270.38
2022-10-30T11:59:22.290Z,97271.19
2022-10-30T12:01:59.368Z,97266.97
2022-10-30T12:04:27.644Z,97256.28
2022-10-30T12:07:33.026Z,97254.69
2022-10-30T12:10:01.043Z,97261.06
2022-10-30T12:12:27.694Z,97264.34
2022-10-30T12:14:54.387Z,97258.47
2022-10-30T12:17:21.112Z,97253.72
2022-10-30T12:19:49.063Z,97249.63
2022-10-30T12:22:25.756Z,97256.84
2022-10-30T12:24:52.378Z,97255.34
2022-10-30T12:27:22.378Z,97255.63
2022-10-30T12:30:11.880Z,97255.06
2022-10-30T12:32:39.873Z,97243.28
2022-10-30T12:35:10.218Z,97242.44
2022-10-30T12:37:40.722Z,97246.78
2022-10-30T12:40:17.903Z,97240.00
2022-10-30T12:42:49.134Z,97241.53
2022-10-30T12:45:24.499Z,97257.06
2022-10-30T12:47:52.920Z,97242.34
2022-10-30T12:50:20.163Z,97242.84
2022-10-30T12:52:52.125Z,97246.88
2022-10-30T12:55:27.631Z,97243.28
2022-10-30T12:58:01.930Z,97244.38
2022-10-30T13:00:28.957Z,97241.81
2022-10-30T13:02:57.634Z,97242.28
2022-10-30T13:05:24.502Z,97241.22
2022-10-30T13:07:52.447Z,97239.72
2022-10-30T13:10:23.291Z,97244.22
2022-10-30T13:12:52.473Z,97237.25
2022-10-30T13:15:26.986Z,97251.06
2022-10-30T13:17:53.808Z,97255.06
2022-10-30T13:20:20.736Z,97248.59
2022-10-30T13:23:10.945Z,97249.13
2022-10-30T13:25:42.229Z,97247.50
2022-10-30T13:28:28.407Z,97253.97
2022-10-30T13:30:58.242Z,97256.94
2022-10-30T13:33:27.924Z,97252.59
2022-10-30T13:36:13.584Z,97249.56
2022-10-30T13:38:59.198Z,97244.38
2022-10-30T13:41:31.915Z,97245.97
2022-10-30T13:44:02.561Z,97247.91
2022-10-30T13:46:32.741Z,97249.84
2022-10-30T13:49:02.254Z,97253.88
2022-10-30T13:51:47.864Z,97242.53
2022-10-30T13:54:19.226Z,97253.75
2022-10-30T13:56:46.156Z,97245.34
2022-10-30T13:59:17.153Z,97246.63
2022-10-30T14:01:47.781Z,97245.97
2022-10-30T14:04:19.660Z,97247.53
2022-10-30T14:07:05.219Z,97240.47
2022-10-30T14:09:43.579Z,97244.16
2022-10-30T14:12:29.049Z,97246.56
2022-10-30T14:14:55.786Z,97242.47
2022-10-30T14:17:22.539Z,97237.53
2022-10-30T14:20:13.701Z,97237.25
2022-10-30T14:22:41.050Z,97240.63
2022-10-30T14:25:14.283Z,97242.59
2022-10-30T14:27:40.924Z,97242.88
2022-10-30T14:30:16.967Z,97246.94
2022-10-30T14:32:48.400Z,97249.63
2022-10-30T14:35:28.337Z,97241.56
2022-10-30T14:37:55.705Z,97242.03
2022-10-30T14:40:42.140Z,97242.53
2022-10-30T14:43:20.864Z,97236.00
2022-10-30T14:45:49.635Z,97236.22
2022-10-30T14:48:19.027Z,97240.19
2022-10-30T14:50:55.136Z,97250.50
2022-10-30T14:53:40.529Z,97261.22
2022-10-30T14:58:44.129Z,97259.88
2022-10-30T15:01:20.104Z,97261.28
2022-10-30T15:03:53.002Z,97273.91
2022-10-30T15:06:25.748Z,97265.66
2022-10-30T15:08:55.406Z,97274.50
2022-10-30T15:11:22.045Z,97284.59
2022-10-30T15:13:49.479Z,97272.88
2022-10-30T15:16:16.765Z,97273.56
2022-10-30T15:18:47.220Z,97285.50
2022-10-30T15:21:18.724Z,97279.88
2022-10-30T15:23:45.465Z,97283.72
2022-10-30T15:26:19.073Z,97269.25
2022-10-30T15:28:45.837Z,97270.59
2022-10-30T15:31:18.682Z,97273.06
2022-10-30T15:33:45.271Z,97269.59
2022-10-30T15:36:16.992Z,97278.22
2022-10-30T15:38:43.605Z,97270.28
2022-10-30T15:41:10.299Z,97268.94
2022-10-30T15:43:37.919Z,97273.00
2022-10-30T15:46:08.602Z,97268.75
2022-10-30T15:48:35.173Z,97273.59
2022-10-30T15:51:02.672Z,97266.06
2022-10-30T15:53:49.550Z,97266.53
2022-10-30T15:56:20.058Z,97274.28
2022-10-30T15:58:54.586Z,97277.22
2022-10-30T16:01:25.390Z,97278.94
2022-10-30T16:03:53.562Z,97269.72
2022-10-30T16:06:20.210Z,97283.50
2022-10-30T16:08:47.369Z,97278.50
2022-10-30T16:11:14.291Z,97287.75
2022-10-30T16:13:41.089Z,97275.72
2022-10-30T16:16:08.068Z,97282.03
2022-10-30T16:18:36.066Z,97279.97
2022-10-30T16:21:04.444Z,97278.66
2022-10-30T16:23:31.003Z,97276.38
2022-10-30T16:25:58.362Z,97296.13
2022-10-30T16:28:26.023Z,97291.34
2022-10-30T16:30:52.686Z,97303.97
2022-10-30T16:33:21.295Z,97297.31
2022-10-30T16:35:54.607Z,97300.72
2022-10-30T16:38:22.848Z,97300.28
2022-10-30T16:40:49.482Z,97298.84
2022-10-30T16:43:24.315Z,97302.50
2022-10-30T16:45:50.942Z,97301.16
2022-10-30T16:48:20.267Z,97315.06
2022-10-30T16:50:46.808Z,97326.63
2022-10-30T16:53:21.020Z,97331.84
2022-10-30T16:55:47.503Z,97330.59
2022-10-30T16:58:14.237Z,97340.53
2022-10-30T17:00:40.917Z,97333.00
2022-10-30T17:03:11.294Z,97342.91
2022-10-30T17:05:37.958Z,97341.13
2022-10-30T17:08:05.817Z,97353.19
2022-10-30T17:10:36.810Z,97351.97
2022-10-30T17:13:22.212Z,97355.50
2022-10-30T17:15:48.797Z,97360.41
2022-10-30T17:18:16.450Z,97363.66
2022-10-30T17:20:42.987Z,97367.13
2022-10-30T17:23:19.163Z,97379.41
2022-10-30T17:25:45.704Z,97375.88
2022-10-30T17:28:25.347Z,97379.59
2022-10-30T17:30:51.926Z,97386.44
2022-10-30T17:33:32.801Z,97385.44
2022-10-30T17:35:59.502Z,97393.72
2022-10-30T17:38:26.188Z,97391.47
2022-10-30T17:40:52.768Z,97398.53
2022-10-30T17:43:19.402Z,97398.38
2022-10-30T17:45:46.098Z,97394.28
2022-10-30T17:48:13.440Z,97402.91
2022-10-30T17:50:40.297Z,97409.22
2022-10-30T17:53:06.881Z,97419.44
2022-10-30T17:55:33.973Z,97421.06
2022-10-30T17:58:00.564Z,97414.28
2022-10-30T18:00:27.058Z,97432.09
2022-10-30T18:02:53.740Z,97433.34
2022-10-30T18:05:21.252Z,97436.81
2022-10-30T18:07:47.791Z,97435.84
2022-10-30T18:10:14.418Z,97443.00
2022-10-30T18:12:41.557Z,97444.03
2022-10-30T18:15:26.834Z,97448.97
2022-10-30T18:17:53.555Z,97443.66
2022-10-30T18:20:20.243Z,97442.84
2022-10-30T18:22:46.825Z,97453.69
2022-10-30T18:25:18.502Z,97446.31
2022-10-30T18:27:45.256Z,97443.22
2022-10-30T18:30:13.242Z,97445.88
2022-10-30T18:32:39.813Z,97453.88
2022-10-30T18:35:11.723Z,97458.09
2022-10-30T18:37:38.195Z,97449.25
2022-10-30T18:40:04.882Z,97446.78
2022-10-30T18:42:31.333Z,97451.75
2022-10-30T18:44:58.050Z,97450.28
2022-10-30T18:47:24.516Z,97464.63
2022-10-30T18:49:50.974Z,97458.72
2022-10-30T18:52:17.489Z,97468.53
2022-10-30T18:54:43.993Z,97470.84
2022-10-30T18:57:10.503Z,97468.78
2022-10-30T18:59:37.074Z,97478.63
2022-10-30T19:02:03.829Z,97471.31
2022-10-30T19:04:30.442Z,97479.72
2022-10-30T19:06:56.968Z,97481.34
2022-10-30T19:09:23.534Z,97483.19
2022-10-30T19:11:50.078Z,97482.16
2022-10-30T19:14:16.718Z,97481.81
2022-10-30T19:16:43.231Z,97487.13
2022-10-30T19:19:09.778Z,97487.16
2022-10-30T19:21:36.696Z,97479.75
2022-10-30T19:24:03.342Z,97474.25
2022-10-30T19:26:29.826Z,97476.72
2022-10-30T19:28:56.433Z,97471.00
2022-10-30T19:31:22.970Z,97459.34
2022-10-30T19:33:54.470Z,97467.09
2022-10-30T19:36:34.181Z,97467.75
2022-10-30T19:39:05.838Z,97471.84
2022-10-30T19:41:35.526Z,97469.56
2022-10-30T19:44:02.072Z,97464.84
2022-10-30T19:46:28.536Z,97478.16
2022-10-30T19:48:57.825Z,97475.25
2022-10-30T19:51:25.539Z,97477.91
2022-10-30T19:53:53.828Z,97482.22
2022-10-30T19:56:20.655Z,97484.03
2022-10-30T19:58:47.342Z,97482.75
2022-10-30T20:01:14.176Z,97491.53
2022-10-30T20:03:40.881Z,97493.91
2022-10-30T20:06:07.445Z,97496.75
2022-10-30T20:08:34.029Z,97506.31
2022-10-30T20:11:01.985Z,97512.81
2022-10-30T20:13:28.714Z,97503.72
2022-10-30T20:15:55.565Z,97503.66
2022-10-30T20:18:22.829Z,97513.59
2022-10-30T20:20:53.381Z,97510.28
2022-10-30T20:23:22.883Z,97516.03
2022-10-30T20:25:52.199Z,97511.94
2022-10-30T20:28:26.324Z,97510.84
2022-10-30T20:30:53.177Z,97518.56
2022-10-30T20:33:20.220Z,97529.38
2022-10-30T20:35:47.291Z,97519.59
2022-10-30T20:38:18.163Z,97522.00
2022-10-30T20:40:45.050Z,97530.53
2022-10-30T20:43:21.472Z,97528.63
2022-10-30T20:45:47.951Z,97540.00
2022-10-30T20:48:14.564Z,97544.69
2022-10-30T20:50:41.121Z,97541.03
2022-10-30T20:53:07.771Z,97539.56
2022-10-30T20:55:35.102Z,97531.63
2022-10-30T20:58:02.376Z,97532.06
2022-10-30T21:00:29.157Z,97528.22
2022-10-30T21:02:57.081Z,97533.13
2022-10-30T21:05:42.797Z,97540.69
2022-10-30T21:08:10.032Z,97544.59
2022-10-30T21:10:37.025Z,97545.88
2022-10-30T21:13:07.327Z,97545.28
2022-10-30T21:15:37.558Z,97542.19
2022-10-30T21:18:04.114Z,97541.94
2022-10-30T21:20:30.593Z,97539.03
2022-10-30T21:22:57.052Z,97538.66
2022-10-30T21:25:23.611Z,97549.91
2022-10-30T21:27:50.073Z,97555.38
2022-10-30T21:30:16.595Z,97551.03
2022-10-30T21:32:43.426Z,97547.13
2022-10-30T21:35:10.024Z,97559.13
2022-10-30T21:37:36.603Z,97562.91
2022-10-30T21:40:03.390Z,97562.47
2022-10-30T21:42:30.116Z,97557.16
2022-10-30T21:44:56.714Z,97557.84
2022-10-30T21:47:23.339Z,97553.50
2022-10-30T21:49:49.865Z,97545.31
2022-10-30T21:52:16.336Z,97538.56
2022-10-30T21:54:42.872Z,97539.94
2022-10-30T21:59:35.877Z,97543.41
2022-10-30T22:02:02.468Z,97540.47
2022-10-30T22:04:30.758Z,97549.50
2022-10-30T22:06:57.215Z,97545.47
2022-10-30T22:09:23.788Z,97540.13
2022-10-30T22:11:50.289Z,97534.53
2022-10-30T22:14:16.893Z,97545.34
2022-10-30T22:16:43.429Z,97546.09
2022-10-30T22:19:10.346Z,97546.91
2022-10-30T22:21:36.835Z,97538.16
2022-10-30T22:24:03.741Z,97537.72
2022-10-30T22:26:30.335Z,97539.91
2022-10-30T22:28:57.874Z,97549.53
2022-10-30T22:31:24.923Z,97555.47
2022-10-30T22:33:51.520Z,97569.34
2022-10-30T22:36:18.883Z,97569.59
2022-10-30T22:38:45.809Z,97567.13
2022-10-30T22:41:15.370Z,97569.13
2022-10-30T22:43:42.252Z,97569.13
2022-10-30T22:46:09.111Z,97580.34
2022-10-30T22:48:35.606Z,97583.00
2022-10-30T22:51:02.865Z,97581.06
2022-10-30T22:53:30.263Z,97579.13
2022-10-30T22:55:56.777Z,97578.13
2022-10-30T22:58:27.420Z,97586.06
2022-10-30T23:00:53.896Z,97590.69
2022-10-30T23:03:20.421Z,97594.97
2022-10-30T23:05:58.627Z,97604.38
2022-10-30T23:08:26.360Z,97601.91
2022-10-30T23:10:53.428Z,97603.25
2022-10-30T23:15:47.040Z,97606.81
2022-10-30T23:18:13.536Z,97599.25
2022-10-30T23:20:40.574Z,97601.22
2022-10-30T23:23:07.063Z,97604.03
2022-10-30T23:25:37.106Z,97609.00
2022-10-30T23:28:04.713Z,97609.81
2022-10-30T23:30:31.277Z,97609.44
2022-10-30T23:32:58.103Z,97615.38
2022-10-30T23:35:24.818Z,97608.28
2022-10-30T23:37:51.303Z,97606.25
2022-10-30T23:40:17.792Z,97606.25
2022-10-30T23:42:44.294Z,97601.81
2022-10-30T23:45:10.963Z,97597.34
2022-10-30T23:47:42.512Z,97598.34
2022-10-30T23:50:09.527Z,97597.44
2022-10-30T23:52:36.061Z,97602.47
2022-10-30T23:55:02.581Z,97613.06
2022-10-30T23:57:29.043Z,97613.25
2022-10-30T23:59:55.555Z,97611.44
